sensor_id;sensor_type;location;lat;lon;timestamp;P1;durP1;ratioP1;P2;durP2;ratioP2
13685;SDS011;6915;48.296;8.874;2023-05-07T00:00:31;3.40;;;2.50;;
13685;SDS011;6915;48.296;8.874;2023-05-07T00:03:00;4.40;;;2.43;;
13685;SDS011;6915;48.296;8.874;2023-05-07T00:05:28;5.50;;;2.43;;
13685;SDS011;6915;48.296;8.874;2023-05-07T00:07:57;3.20;;;2.70;;
13685;SDS011;6915;48.296;8.874;2023-05-07T00:10:26;3.17;;;2.73;;
13685;SDS011;6915;48.296;8.874;2023-05-07T00:12:56;2.70;;;2.50;;
13685;SDS011;6915;48.296;8.874;2023-05-07T00:15:25;4.17;;;2.73;;
13685;SDS011;6915;48.296;8.874;2023-05-07T00:17:55;3.47;;;2.73;;
13685;SDS011;6915;48.296;8.874;2023-05-07T00:20:24;4.07;;;3.23;;
13685;SDS011;6915;48.296;8.874;2023-05-07T00:22:53;3.50;;;3.20;;
13685;SDS011;6915;48.296;8.874;2023-05-07T00:25:21;4.70;;;3.07;;
13685;SDS011;6915;48.296;8.874;2023-05-07T00:27:50;5.70;;;3.40;;
13685;SDS011;6915;48.296;8.874;2023-05-07T00:30:20;4.70;;;3.30;;
13685;SDS011;6915;48.296;8.874;2023-05-07T00:32:49;4.97;;;3.13;;
13685;SDS011;6915;48.296;8.874;2023-05-07T00:35:17;3.43;;;3.13;;
13685;SDS011;6915;48.296;8.874;2023-05-07T00:37:46;3.93;;;3.20;;
13685;SDS011;6915;48.296;8.874;2023-05-07T00:40:14;4.20;;;3.50;;
13685;SDS011;6915;48.296;8.874;2023-05-07T00:42:43;3.63;;;3.07;;
13685;SDS011;6915;48.296;8.874;2023-05-07T00:45:12;4.60;;;3.20;;
13685;SDS011;6915;48.296;8.874;2023-05-07T00:47:42;4.37;;;3.07;;
13685;SDS011;6915;48.296;8.874;2023-05-07T00:50:11;7.53;;;3.20;;
13685;SDS011;6915;48.296;8.874;2023-05-07T00:52:42;4.23;;;3.13;;
13685;SDS011;6915;48.296;8.874;2023-05-07T00:55:10;4.47;;;2.80;;
13685;SDS011;6915;48.296;8.874;2023-05-07T00:57:40;3.80;;;2.90;;
13685;SDS011;6915;48.296;8.874;2023-05-07T01:00:10;3.30;;;3.00;;
13685;SDS011;6915;48.296;8.874;2023-05-07T01:02:39;3.57;;;2.63;;
13685;SDS011;6915;48.296;8.874;2023-05-07T01:05:10;5.57;;;2.97;;
13685;SDS011;6915;48.296;8.874;2023-05-07T01:07:41;4.90;;;2.80;;
13685;SDS011;6915;48.296;8.874;2023-05-07T01:10:11;5.97;;;2.90;;
13685;SDS011;6915;48.296;8.874;2023-05-07T01:12:40;3.80;;;2.70;;
13685;SDS011;6915;48.296;8.874;2023-05-07T01:15:10;2.93;;;2.73;;
13685;SDS011;6915;48.296;8.874;2023-05-07T01:17:40;3.73;;;2.80;;
13685;SDS011;6915;48.296;8.874;2023-05-07T01:20:11;3.47;;;3.10;;
13685;SDS011;6915;48.296;8.874;2023-05-07T01:22:42;3.63;;;3.33;;
13685;SDS011;6915;48.296;8.874;2023-05-07T01:25:11;3.23;;;3.00;;
13685;SDS011;6915;48.296;8.874;2023-05-07T01:27:41;3.73;;;3.30;;
13685;SDS011;6915;48.296;8.874;2023-05-07T01:30:10;2.90;;;2.70;;
13685;SDS011;6915;48.296;8.874;2023-05-07T01:32:41;3.97;;;3.10;;
13685;SDS011;6915;48.296;8.874;2023-05-07T01:35:16;3.33;;;2.90;;
13685;SDS011;6915;48.296;8.874;2023-05-07T01:37:49;5.07;;;3.00;;
13685;SDS011;6915;48.296;8.874;2023-05-07T01:40:19;4.40;;;3.10;;
13685;SDS011;6915;48.296;8.874;2023-05-07T01:42:48;6.13;;;3.20;;
13685;SDS011;6915;48.296;8.874;2023-05-07T01:45:17;3.50;;;3.03;;
13685;SDS011;6915;48.296;8.874;2023-05-07T01:47:45;4.23;;;3.27;;
13685;SDS011;6915;48.296;8.874;2023-05-07T01:50:15;3.13;;;2.90;;
13685;SDS011;6915;48.296;8.874;2023-05-07T01:52:45;3.83;;;2.90;;
13685;SDS011;6915;48.296;8.874;2023-05-07T01:55:17;3.30;;;2.77;;
13685;SDS011;6915;48.296;8.874;2023-05-07T01:57:46;3.10;;;2.90;;
13685;SDS011;6915;48.296;8.874;2023-05-07T02:00:15;3.23;;;2.97;;
13685;SDS011;6915;48.296;8.874;2023-05-07T02:02:44;3.23;;;2.90;;
13685;SDS011;6915;48.296;8.874;2023-05-07T02:05:13;4.10;;;3.07;;
13685;SDS011;6915;48.296;8.874;2023-05-07T02:07:41;4.20;;;2.70;;
13685;SDS011;6915;48.296;8.874;2023-05-07T02:10:10;3.80;;;3.07;;
13685;SDS011;6915;48.296;8.874;2023-05-07T02:12:40;3.00;;;2.77;;
13685;SDS011;6915;48.296;8.874;2023-05-07T02:15:09;4.17;;;3.03;;
13685;SDS011;6915;48.296;8.874;2023-05-07T02:17:39;3.40;;;2.70;;
13685;SDS011;6915;48.296;8.874;2023-05-07T02:20:24;5.60;;;2.50;;
13685;SDS011;6915;48.296;8.874;2023-05-07T02:22:54;5.07;;;2.70;;
13685;SDS011;6915;48.296;8.874;2023-05-07T02:25:23;4.33;;;2.60;;
13685;SDS011;6915;48.296;8.874;2023-05-07T02:27:53;4.27;;;2.67;;
13685;SDS011;6915;48.296;8.874;2023-05-07T02:30:22;5.13;;;2.97;;
13685;SDS011;6915;48.296;8.874;2023-05-07T02:32:51;4.40;;;2.80;;
13685;SDS011;6915;48.296;8.874;2023-05-07T02:35:20;4.47;;;2.87;;
13685;SDS011;6915;48.296;8.874;2023-05-07T02:37:50;4.77;;;2.63;;
13685;SDS011;6915;48.296;8.874;2023-05-07T02:40:18;2.90;;;2.70;;
13685;SDS011;6915;48.296;8.874;2023-05-07T02:42:47;2.60;;;2.40;;
13685;SDS011;6915;48.296;8.874;2023-05-07T02:45:17;2.80;;;2.60;;
13685;SDS011;6915;48.296;8.874;2023-05-07T02:47:46;5.27;;;2.73;;
13685;SDS011;6915;48.296;8.874;2023-05-07T02:50:14;3.23;;;2.93;;
13685;SDS011;6915;48.296;8.874;2023-05-07T02:52:43;4.07;;;2.47;;
13685;SDS011;6915;48.296;8.874;2023-05-07T02:55:12;3.83;;;2.70;;
13685;SDS011;6915;48.296;8.874;2023-05-07T02:57:41;5.07;;;2.57;;
13685;SDS011;6915;48.296;8.874;2023-05-07T03:00:10;4.63;;;3.13;;
13685;SDS011;6915;48.296;8.874;2023-05-07T03:07:45;3.20;;;2.90;;
13685;SDS011;6915;48.296;8.874;2023-05-07T03:10:13;3.43;;;2.97;;
13685;SDS011;6915;48.296;8.874;2023-05-07T03:12:43;3.20;;;2.90;;
13685;SDS011;6915;48.296;8.874;2023-05-07T03:15:12;3.90;;;3.00;;
13685;SDS011;6915;48.296;8.874;2023-05-07T03:17:41;3.30;;;2.60;;
13685;SDS011;6915;48.296;8.874;2023-05-07T03:20:10;5.27;;;3.20;;
13685;SDS011;6915;48.296;8.874;2023-05-07T03:22:40;3.13;;;2.93;;
13685;SDS011;6915;48.296;8.874;2023-05-07T03:25:10;3.00;;;2.80;;
13685;SDS011;6915;48.296;8.874;2023-05-07T03:27:39;3.20;;;2.80;;
13685;SDS011;6915;48.296;8.874;2023-05-07T03:30:08;3.50;;;3.20;;
13685;SDS011;6915;48.296;8.874;2023-05-07T03:32:38;3.10;;;2.80;;
13685;SDS011;6915;48.296;8.874;2023-05-07T03:35:07;3.07;;;2.83;;
13685;SDS011;6915;48.296;8.874;2023-05-07T03:37:37;3.63;;;2.77;;
13685;SDS011;6915;48.296;8.874;2023-05-07T03:40:06;2.80;;;2.60;;
13685;SDS011;6915;48.296;8.874;2023-05-07T03:42:38;2.97;;;2.77;;
13685;SDS011;6915;48.296;8.874;2023-05-07T03:45:07;4.40;;;2.73;;
13685;SDS011;6915;48.296;8.874;2023-05-07T03:47:36;3.00;;;2.80;;
13685;SDS011;6915;48.296;8.874;2023-05-07T03:50:05;3.33;;;2.97;;
13685;SDS011;6915;48.296;8.874;2023-05-07T03:52:35;2.97;;;2.70;;
13685;SDS011;6915;48.296;8.874;2023-05-07T03:55:04;3.17;;;2.80;;
13685;SDS011;6915;48.296;8.874;2023-05-07T03:57:34;2.53;;;2.40;;
13685;SDS011;6915;48.296;8.874;2023-05-07T04:00:05;2.63;;;2.43;;
13685;SDS011;6915;48.296;8.874;2023-05-07T04:02:34;2.73;;;2.53;;
13685;SDS011;6915;48.296;8.874;2023-05-07T04:05:03;2.70;;;2.60;;
13685;SDS011;6915;48.296;8.874;2023-05-07T04:07:32;3.97;;;2.80;;
13685;SDS011;6915;48.296;8.874;2023-05-07T04:10:01;2.93;;;2.70;;
13685;SDS011;6915;48.296;8.874;2023-05-07T04:12:30;2.80;;;2.40;;
13685;SDS011;6915;48.296;8.874;2023-05-07T04:14:58;4.13;;;2.57;;
13685;SDS011;6915;48.296;8.874;2023-05-07T04:17:28;3.80;;;2.93;;
13685;SDS011;6915;48.296;8.874;2023-05-07T04:19:57;3.17;;;2.97;;
13685;SDS011;6915;48.296;8.874;2023-05-07T04:22:26;3.43;;;2.73;;
13685;SDS011;6915;48.296;8.874;2023-05-07T04:24:54;3.00;;;2.77;;
13685;SDS011;6915;48.296;8.874;2023-05-07T04:27:23;5.03;;;2.80;;
13685;SDS011;6915;48.296;8.874;2023-05-07T04:29:53;3.97;;;2.40;;
13685;SDS011;6915;48.296;8.874;2023-05-07T04:32:21;2.50;;;2.30;;
13685;SDS011;6915;48.296;8.874;2023-05-07T04:34:52;2.33;;;2.13;;
13685;SDS011;6915;48.296;8.874;2023-05-07T04:37:20;5.70;;;2.40;;
13685;SDS011;6915;48.296;8.874;2023-05-07T04:39:49;2.27;;;1.83;;
13685;SDS011;6915;48.296;8.874;2023-05-07T04:42:18;2.97;;;2.00;;
13685;SDS011;6915;48.296;8.874;2023-05-07T04:44:47;3.43;;;2.00;;
13685;SDS011;6915;48.296;8.874;2023-05-07T04:47:20;2.27;;;1.87;;
13685;SDS011;6915;48.296;8.874;2023-05-07T04:49:49;7.70;;;2.07;;
13685;SDS011;6915;48.296;8.874;2023-05-07T04:52:19;2.10;;;1.90;;
13685;SDS011;6915;48.296;8.874;2023-05-07T04:54:48;2.03;;;1.83;;
13685;SDS011;6915;48.296;8.874;2023-05-07T04:57:16;2.27;;;1.60;;
13685;SDS011;6915;48.296;8.874;2023-05-07T04:59:45;1.70;;;1.60;;
13685;SDS011;6915;48.296;8.874;2023-05-07T05:02:14;5.30;;;2.07;;
13685;SDS011;6915;48.296;8.874;2023-05-07T05:04:43;2.97;;;1.77;;
13685;SDS011;6915;48.296;8.874;2023-05-07T05:07:11;2.10;;;1.87;;
13685;SDS011;6915;48.296;8.874;2023-05-07T05:09:41;1.93;;;1.80;;
13685;SDS011;6915;48.296;8.874;2023-05-07T05:12:10;2.80;;;1.93;;
13685;SDS011;6915;48.296;8.874;2023-05-07T05:14:39;2.17;;;1.70;;
13685;SDS011;6915;48.296;8.874;2023-05-07T05:17:08;2.25;;;2.00;;
13685;SDS011;6915;48.296;8.874;2023-05-07T05:19:36;2.40;;;1.70;;
13685;SDS011;6915;48.296;8.874;2023-05-07T05:22:05;2.92;;;1.65;;
13685;SDS011;6915;48.296;8.874;2023-05-07T05:24:33;2.17;;;1.77;;
13685;SDS011;6915;48.296;8.874;2023-05-07T05:27:03;2.07;;;1.97;;
13685;SDS011;6915;48.296;8.874;2023-05-07T05:29:32;2.33;;;2.10;;
13685;SDS011;6915;48.296;8.874;2023-05-07T05:32:01;3.17;;;2.00;;
13685;SDS011;6915;48.296;8.874;2023-05-07T05:34:29;2.90;;;2.23;;
13685;SDS011;6915;48.296;8.874;2023-05-07T05:36:58;2.37;;;2.17;;
13685;SDS011;6915;48.296;8.874;2023-05-07T05:39:27;2.70;;;2.50;;
13685;SDS011;6915;48.296;8.874;2023-05-07T05:41:56;2.43;;;2.23;;
13685;SDS011;6915;48.296;8.874;2023-05-07T05:44:26;2.27;;;2.17;;
13685;SDS011;6915;48.296;8.874;2023-05-07T05:46:55;2.43;;;2.23;;
13685;SDS011;6915;48.296;8.874;2023-05-07T05:49:24;2.60;;;2.37;;
13685;SDS011;6915;48.296;8.874;2023-05-07T05:51:53;4.80;;;2.40;;
13685;SDS011;6915;48.296;8.874;2023-05-07T05:54:21;2.87;;;2.30;;
13685;SDS011;6915;48.296;8.874;2023-05-07T05:56:50;2.50;;;2.30;;
13685;SDS011;6915;48.296;8.874;2023-05-07T05:59:19;3.72;;;2.55;;
13685;SDS011;6915;48.296;8.874;2023-05-07T06:01:49;3.97;;;2.67;;
13685;SDS011;6915;48.296;8.874;2023-05-07T06:04:18;4.43;;;2.88;;
13685;SDS011;6915;48.296;8.874;2023-05-07T06:06:49;4.03;;;2.45;;
13685;SDS011;6915;48.296;8.874;2023-05-07T06:09:17;5.28;;;2.70;;
13685;SDS011;6915;48.296;8.874;2023-05-07T06:11:46;3.88;;;2.70;;
13685;SDS011;6915;48.296;8.874;2023-05-07T06:14:15;4.40;;;2.67;;
13685;SDS011;6915;48.296;8.874;2023-05-07T06:16:43;3.67;;;2.78;;
13685;SDS011;6915;48.296;8.874;2023-05-07T06:19:13;2.70;;;2.50;;
13685;SDS011;6915;48.296;8.874;2023-05-07T06:21:48;3.25;;;2.70;;
13685;SDS011;6915;48.296;8.874;2023-05-07T06:24:16;3.00;;;2.80;;
13685;SDS011;6915;48.296;8.874;2023-05-07T06:26:45;2.60;;;2.40;;
13685;SDS011;6915;48.296;8.874;2023-05-07T06:29:13;4.28;;;2.95;;
13685;SDS011;6915;48.296;8.874;2023-05-07T06:31:42;4.72;;;3.35;;
13685;SDS011;6915;48.296;8.874;2023-05-07T06:34:10;5.22;;;3.00;;
13685;SDS011;6915;48.296;8.874;2023-05-07T06:36:41;3.92;;;3.08;;
13685;SDS011;6915;48.296;8.874;2023-05-07T06:39:10;3.25;;;2.95;;
13685;SDS011;6915;48.296;8.874;2023-05-07T06:41:39;4.75;;;3.53;;
13685;SDS011;6915;48.296;8.874;2023-05-07T06:44:07;3.47;;;3.08;;
13685;SDS011;6915;48.296;8.874;2023-05-07T06:46:36;6.40;;;3.40;;
13685;SDS011;6915;48.296;8.874;2023-05-07T06:49:04;4.43;;;3.53;;
13685;SDS011;6915;48.296;8.874;2023-05-07T06:51:33;4.37;;;3.77;;
13685;SDS011;6915;48.296;8.874;2023-05-07T06:54:03;4.77;;;4.10;;
13685;SDS011;6915;48.296;8.874;2023-05-07T06:56:32;4.60;;;3.80;;
13685;SDS011;6915;48.296;8.874;2023-05-07T06:59:01;4.03;;;3.73;;
13685;SDS011;6915;48.296;8.874;2023-05-07T07:01:30;4.27;;;3.83;;
13685;SDS011;6915;48.296;8.874;2023-05-07T07:03:59;6.23;;;4.17;;
13685;SDS011;6915;48.296;8.874;2023-05-07T07:06:28;4.20;;;3.90;;
13685;SDS011;6915;48.296;8.874;2023-05-07T07:08:57;4.40;;;4.00;;
13685;SDS011;6915;48.296;8.874;2023-05-07T07:11:27;4.40;;;3.87;;
13685;SDS011;6915;48.296;8.874;2023-05-07T07:13:56;4.53;;;3.43;;
13685;SDS011;6915;48.296;8.874;2023-05-07T07:16:25;3.87;;;3.50;;
13685;SDS011;6915;48.296;8.874;2023-05-07T07:18:53;3.83;;;3.50;;
13685;SDS011;6915;48.296;8.874;2023-05-07T07:21:22;4.17;;;3.30;;
13685;SDS011;6915;48.296;8.874;2023-05-07T07:23:51;4.00;;;3.60;;
13685;SDS011;6915;48.296;8.874;2023-05-07T07:26:20;6.07;;;3.97;;
13685;SDS011;6915;48.296;8.874;2023-05-07T07:28:50;3.78;;;3.47;;
13685;SDS011;6915;48.296;8.874;2023-05-07T07:31:19;5.05;;;3.55;;
13685;SDS011;6915;48.296;8.874;2023-05-07T07:33:50;3.40;;;3.10;;
13685;SDS011;6915;48.296;8.874;2023-05-07T07:36:18;4.28;;;3.88;;
13685;SDS011;6915;48.296;8.874;2023-05-07T07:38:47;4.22;;;3.28;;
13685;SDS011;6915;48.296;8.874;2023-05-07T07:41:15;3.80;;;3.30;;
13685;SDS011;6915;48.296;8.874;2023-05-07T07:43:44;3.53;;;2.90;;
13685;SDS011;6915;48.296;8.874;2023-05-07T07:46:15;3.72;;;3.00;;
13685;SDS011;6915;48.296;8.874;2023-05-07T07:48:43;4.20;;;3.15;;
13685;SDS011;6915;48.296;8.874;2023-05-07T07:51:12;3.47;;;3.00;;
13685;SDS011;6915;48.296;8.874;2023-05-07T07:53:41;4.55;;;3.00;;
13685;SDS011;6915;48.296;8.874;2023-05-07T07:56:09;3.60;;;3.20;;
13685;SDS011;6915;48.296;8.874;2023-05-07T07:58:38;2.85;;;2.65;;
13685;SDS011;6915;48.296;8.874;2023-05-07T08:01:07;3.90;;;2.60;;
13685;SDS011;6915;48.296;8.874;2023-05-07T08:03:38;3.20;;;3.00;;
13685;SDS011;6915;48.296;8.874;2023-05-07T08:06:08;3.53;;;2.90;;
13685;SDS011;6915;48.296;8.874;2023-05-07T08:08:37;3.30;;;3.00;;
13685;SDS011;6915;48.296;8.874;2023-05-07T08:11:06;3.22;;;3.00;;
13685;SDS011;6915;48.296;8.874;2023-05-07T08:13:36;5.47;;;3.10;;
13685;SDS011;6915;48.296;8.874;2023-05-07T08:16:06;3.85;;;3.05;;
13685;SDS011;6915;48.296;8.874;2023-05-07T08:18:35;3.20;;;2.92;;
13685;SDS011;6915;48.296;8.874;2023-05-07T08:21:05;2.60;;;2.40;;
13685;SDS011;6915;48.296;8.874;2023-05-07T08:23:34;2.67;;;2.53;;
13685;SDS011;6915;48.296;8.874;2023-05-07T08:26:03;4.07;;;2.63;;
13685;SDS011;6915;48.296;8.874;2023-05-07T08:28:33;3.17;;;2.70;;
13685;SDS011;6915;48.296;8.874;2023-05-07T08:31:02;2.92;;;2.72;;
13685;SDS011;6915;48.296;8.874;2023-05-07T08:33:30;3.20;;;3.00;;
13685;SDS011;6915;48.296;8.874;2023-05-07T08:35:59;4.35;;;3.40;;
13685;SDS011;6915;48.296;8.874;2023-05-07T08:38:29;3.13;;;2.80;;
13685;SDS011;6915;48.296;8.874;2023-05-07T08:40:58;3.38;;;3.00;;
13685;SDS011;6915;48.296;8.874;2023-05-07T08:43:28;4.15;;;3.28;;
13685;SDS011;6915;48.296;8.874;2023-05-07T08:46:00;3.78;;;2.88;;
13685;SDS011;6915;48.296;8.874;2023-05-07T08:48:30;4.22;;;3.00;;
13685;SDS011;6915;48.296;8.874;2023-05-07T08:51:03;3.22;;;2.92;;
13685;SDS011;6915;48.296;8.874;2023-05-07T08:53:34;3.88;;;3.03;;
13685;SDS011;6915;48.296;8.874;2023-05-07T08:56:08;3.45;;;2.70;;
13685;SDS011;6915;48.296;8.874;2023-05-07T08:58:37;4.95;;;3.35;;
13685;SDS011;6915;48.296;8.874;2023-05-07T09:01:06;3.72;;;3.20;;
13685;SDS011;6915;48.296;8.874;2023-05-07T09:03:37;3.28;;;2.80;;
13685;SDS011;6915;48.296;8.874;2023-05-07T09:06:10;4.15;;;2.97;;
13685;SDS011;6915;48.296;8.874;2023-05-07T09:08:41;3.50;;;2.70;;
13685;SDS011;6915;48.296;8.874;2023-05-07T09:11:15;3.55;;;2.80;;
13685;SDS011;6915;48.296;8.874;2023-05-07T09:13:46;3.92;;;2.70;;
13685;SDS011;6915;48.296;8.874;2023-05-07T09:16:15;4.55;;;2.63;;
13685;SDS011;6915;48.296;8.874;2023-05-07T09:18:46;3.35;;;2.70;;
13685;SDS011;6915;48.296;8.874;2023-05-07T09:21:17;3.72;;;2.80;;
13685;SDS011;6915;48.296;8.874;2023-05-07T09:23:49;2.90;;;2.65;;
13685;SDS011;6915;48.296;8.874;2023-05-07T09:26:20;3.30;;;2.60;;
13685;SDS011;6915;48.296;8.874;2023-05-07T09:28:49;3.20;;;2.70;;
13685;SDS011;6915;48.296;8.874;2023-05-07T09:31:18;3.60;;;2.47;;
13685;SDS011;6915;48.296;8.874;2023-05-07T09:33:50;3.35;;;2.70;;
13685;SDS011;6915;48.296;8.874;2023-05-07T09:36:20;3.33;;;2.60;;
13685;SDS011;6915;48.296;8.874;2023-05-07T09:38:50;3.75;;;2.60;;
13685;SDS011;6915;48.296;8.874;2023-05-07T09:41:19;3.58;;;3.28;;
13685;SDS011;6915;48.296;8.874;2023-05-07T09:43:47;3.13;;;2.42;;
13685;SDS011;6915;48.296;8.874;2023-05-07T09:46:24;3.50;;;2.60;;
13685;SDS011;6915;48.296;8.874;2023-05-07T09:48:58;2.88;;;2.17;;
13685;SDS011;6915;48.296;8.874;2023-05-07T09:51:28;2.95;;;2.70;;
13685;SDS011;6915;48.296;8.874;2023-05-07T09:54:01;2.92;;;2.67;;
13685;SDS011;6915;48.296;8.874;2023-05-07T09:56:31;3.67;;;2.58;;
13685;SDS011;6915;48.296;8.874;2023-05-07T09:59:02;4.93;;;2.78;;
13685;SDS011;6915;48.296;8.874;2023-05-07T10:01:31;3.35;;;2.80;;
13685;SDS011;6915;48.296;8.874;2023-05-07T10:04:02;3.47;;;2.50;;
13685;SDS011;6915;48.296;8.874;2023-05-07T10:06:33;3.85;;;2.55;;
13685;SDS011;6915;48.296;8.874;2023-05-07T10:09:05;2.75;;;2.20;;
13685;SDS011;6915;48.296;8.874;2023-05-07T10:11:35;3.25;;;2.53;;
13685;SDS011;6915;48.296;8.874;2023-05-07T10:14:04;3.03;;;2.72;;
13685;SDS011;6915;48.296;8.874;2023-05-07T10:16:33;3.08;;;2.67;;
13685;SDS011;6915;48.296;8.874;2023-05-07T10:19:06;2.58;;;2.28;;
13685;SDS011;6915;48.296;8.874;2023-05-07T10:21:36;3.35;;;2.70;;
13685;SDS011;6915;48.296;8.874;2023-05-07T10:24:08;2.22;;;2.13;;
13685;SDS011;6915;48.296;8.874;2023-05-07T10:26:41;2.60;;;2.40;;
13685;SDS011;6915;48.296;8.874;2023-05-07T10:29:14;2.65;;;2.33;;
13685;SDS011;6915;48.296;8.874;2023-05-07T10:31:55;3.45;;;2.30;;
13685;SDS011;6915;48.296;8.874;2023-05-07T10:34:32;3.25;;;2.15;;
13685;SDS011;6915;48.296;8.874;2023-05-07T10:37:05;4.75;;;2.65;;
13685;SDS011;6915;48.296;8.874;2023-05-07T10:39:36;4.40;;;2.78;;
13685;SDS011;6915;48.296;8.874;2023-05-07T10:42:07;2.58;;;2.22;;
13685;SDS011;6915;48.296;8.874;2023-05-07T10:44:37;3.35;;;2.30;;
13685;SDS011;6915;48.296;8.874;2023-05-07T10:47:06;3.03;;;1.90;;
13685;SDS011;6915;48.296;8.874;2023-05-07T10:49:36;3.47;;;2.10;;
13685;SDS011;6915;48.296;8.874;2023-05-07T10:52:13;3.08;;;1.85;;
13685;SDS011;6915;48.296;8.874;2023-05-07T10:54:45;3.05;;;1.88;;
13685;SDS011;6915;48.296;8.874;2023-05-07T10:57:33;3.30;;;2.00;;
13685;SDS011;6915;48.296;8.874;2023-05-07T11:00:02;2.88;;;1.85;;
13685;SDS011;6915;48.296;8.874;2023-05-07T11:03:05;2.90;;;1.80;;
13685;SDS011;6915;48.296;8.874;2023-05-07T11:05:34;1.77;;;1.65;;
13685;SDS011;6915;48.296;8.874;2023-05-07T11:08:04;1.70;;;1.60;;
13685;SDS011;6915;48.296;8.874;2023-05-07T11:10:51;3.03;;;1.48;;
13685;SDS011;6915;48.296;8.874;2023-05-07T11:16:19;1.35;;;1.25;;
13685;SDS011;6915;48.296;8.874;2023-05-07T11:18:49;1.40;;;1.30;;
13685;SDS011;6915;48.296;8.874;2023-05-07T11:21:31;2.47;;;1.30;;
13685;SDS011;6915;48.296;8.874;2023-05-07T11:24:02;1.88;;;1.50;;
13685;SDS011;6915;48.296;8.874;2023-05-07T11:26:42;2.55;;;1.38;;
13685;SDS011;6915;48.296;8.874;2023-05-07T11:29:11;3.53;;;1.35;;
13685;SDS011;6915;48.296;8.874;2023-05-07T11:31:41;1.65;;;1.50;;
13685;SDS011;6915;48.296;8.874;2023-05-07T11:34:14;1.70;;;1.60;;
13685;SDS011;6915;48.296;8.874;2023-05-07T11:36:46;1.70;;;1.60;;
13685;SDS011;6915;48.296;8.874;2023-05-07T11:39:25;2.58;;;1.80;;
13685;SDS011;6915;48.296;8.874;2023-05-07T11:41:55;1.88;;;1.77;;
13685;SDS011;6915;48.296;8.874;2023-05-07T11:44:24;3.50;;;2.13;;
13685;SDS011;6915;48.296;8.874;2023-05-07T11:47:05;2.38;;;1.73;;
13685;SDS011;6915;48.296;8.874;2023-05-07T11:49:34;2.90;;;1.90;;
13685;SDS011;6915;48.296;8.874;2023-05-07T11:52:03;2.03;;;1.70;;
13685;SDS011;6915;48.296;8.874;2023-05-07T11:54:36;2.38;;;2.00;;
13685;SDS011;6915;48.296;8.874;2023-05-07T11:57:07;2.95;;;1.80;;
13685;SDS011;6915;48.296;8.874;2023-05-07T11:59:43;2.85;;;1.88;;
13685;SDS011;6915;48.296;8.874;2023-05-07T12:02:13;2.10;;;1.90;;
13685;SDS011;6915;48.296;8.874;2023-05-07T12:04:42;2.92;;;1.80;;
13685;SDS011;6915;48.296;8.874;2023-05-07T12:07:11;5.03;;;2.05;;
13685;SDS011;6915;48.296;8.874;2023-05-07T12:09:40;4.45;;;2.30;;
13685;SDS011;6915;48.296;8.874;2023-05-07T12:12:11;4.65;;;2.20;;
13685;SDS011;6915;48.296;8.874;2023-05-07T12:14:42;3.90;;;2.22;;
13685;SDS011;6915;48.296;8.874;2023-05-07T12:22:21;7.32;;;2.15;;
13685;SDS011;6915;48.296;8.874;2023-05-07T12:24:55;5.35;;;2.30;;
13685;SDS011;6915;48.296;8.874;2023-05-07T12:27:26;3.17;;;2.10;;
13685;SDS011;6915;48.296;8.874;2023-05-07T12:29:56;3.63;;;2.25;;
13685;SDS011;6915;48.296;8.874;2023-05-07T12:32:25;4.50;;;2.40;;
13685;SDS011;6915;48.296;8.874;2023-05-07T12:34:55;6.32;;;2.53;;
13685;SDS011;6915;48.296;8.874;2023-05-07T12:37:24;6.00;;;2.38;;
13685;SDS011;6915;48.296;8.874;2023-05-07T12:40:03;5.85;;;2.83;;
13685;SDS011;6915;48.296;8.874;2023-05-07T12:42:39;4.32;;;2.67;;
13685;SDS011;6915;48.296;8.874;2023-05-07T12:45:10;3.72;;;2.40;;
13685;SDS011;6915;48.296;8.874;2023-05-07T12:47:43;5.30;;;2.37;;
13685;SDS011;6915;48.296;8.874;2023-05-07T12:50:12;3.70;;;2.13;;
13685;SDS011;6915;48.296;8.874;2023-05-07T12:52:42;4.83;;;2.13;;
13685;SDS011;6915;48.296;8.874;2023-05-07T12:55:13;4.57;;;2.30;;
13685;SDS011;6915;48.296;8.874;2023-05-07T12:57:45;3.03;;;2.20;;
13685;SDS011;6915;48.296;8.874;2023-05-07T13:00:16;5.23;;;1.97;;
13685;SDS011;6915;48.296;8.874;2023-05-07T13:02:58;4.43;;;1.87;;
13685;SDS011;6915;48.296;8.874;2023-05-07T13:05:27;6.30;;;2.40;;
13685;SDS011;6915;48.296;8.874;2023-05-07T13:07:55;5.27;;;2.33;;
13685;SDS011;6915;48.296;8.874;2023-05-07T13:10:25;3.87;;;2.67;;
13685;SDS011;6915;48.296;8.874;2023-05-07T13:12:55;5.30;;;3.33;;
13685;SDS011;6915;48.296;8.874;2023-05-07T13:15:24;4.33;;;2.90;;
13685;SDS011;6915;48.296;8.874;2023-05-07T13:17:53;8.80;;;3.10;;
13685;SDS011;6915;48.296;8.874;2023-05-07T13:20:22;4.07;;;3.20;;
13685;SDS011;6915;48.296;8.874;2023-05-07T13:22:51;5.63;;;3.20;;
13685;SDS011;6915;48.296;8.874;2023-05-07T13:25:19;7.67;;;3.00;;
13685;SDS011;6915;48.296;8.874;2023-05-07T13:27:48;4.97;;;2.90;;
13685;SDS011;6915;48.296;8.874;2023-05-07T13:30:18;6.17;;;2.93;;
13685;SDS011;6915;48.296;8.874;2023-05-07T13:32:47;5.00;;;3.00;;
13685;SDS011;6915;48.296;8.874;2023-05-07T13:35:17;5.87;;;3.57;;
13685;SDS011;6915;48.296;8.874;2023-05-07T13:48:07;5.53;;;3.60;;
13685;SDS011;6915;48.296;8.874;2023-05-07T13:50:35;4.50;;;3.30;;
13685;SDS011;6915;48.296;8.874;2023-05-07T13:53:04;10.63;;;3.73;;
13685;SDS011;6915;48.296;8.874;2023-05-07T13:55:33;5.13;;;3.70;;
13685;SDS011;6915;48.296;8.874;2023-05-07T13:58:02;4.30;;;3.23;;
13685;SDS011;6915;48.296;8.874;2023-05-07T14:00:31;5.10;;;3.17;;
13685;SDS011;6915;48.296;8.874;2023-05-07T14:02:59;4.77;;;3.30;;
13685;SDS011;6915;48.296;8.874;2023-05-07T14:05:30;4.40;;;2.87;;
13685;SDS011;6915;48.296;8.874;2023-05-07T14:08:00;3.93;;;3.13;;
13685;SDS011;6915;48.296;8.874;2023-05-07T14:10:30;5.80;;;3.50;;
13685;SDS011;6915;48.296;8.874;2023-05-07T14:13:00;3.87;;;3.53;;
13685;SDS011;6915;48.296;8.874;2023-05-07T14:15:28;5.43;;;4.20;;
13685;SDS011;6915;48.296;8.874;2023-05-07T14:17:57;5.73;;;3.00;;
13685;SDS011;6915;48.296;8.874;2023-05-07T14:20:26;3.70;;;2.90;;
13685;SDS011;6915;48.296;8.874;2023-05-07T14:22:57;3.53;;;3.20;;
13685;SDS011;6915;48.296;8.874;2023-05-07T14:25:26;4.20;;;2.53;;
13685;SDS011;6915;48.296;8.874;2023-05-07T14:27:55;2.77;;;2.50;;
13685;SDS011;6915;48.296;8.874;2023-05-07T14:30:24;3.03;;;2.77;;
13685;SDS011;6915;48.296;8.874;2023-05-07T14:32:52;3.40;;;2.60;;
13685;SDS011;6915;48.296;8.874;2023-05-07T14:35:21;6.40;;;3.63;;
13685;SDS011;6915;48.296;8.874;2023-05-07T14:37:49;3.43;;;2.83;;
13685;SDS011;6915;48.296;8.874;2023-05-07T14:40:20;4.93;;;2.87;;
13685;SDS011;6915;48.296;8.874;2023-05-07T14:42:48;4.05;;;3.00;;
13685;SDS011;6915;48.296;8.874;2023-05-07T14:45:17;3.10;;;2.65;;
13685;SDS011;6915;48.296;8.874;2023-05-07T14:47:46;2.97;;;2.63;;
13685;SDS011;6915;48.296;8.874;2023-05-07T14:50:15;3.25;;;2.33;;
13685;SDS011;6915;48.296;8.874;2023-05-07T14:52:44;4.87;;;2.70;;
13685;SDS011;6915;48.296;8.874;2023-05-07T14:55:12;3.45;;;2.50;;
13685;SDS011;6915;48.296;8.874;2023-05-07T14:57:42;4.55;;;2.85;;
13685;SDS011;6915;48.296;8.874;2023-05-07T15:00:11;4.03;;;2.60;;
13685;SDS011;6915;48.296;8.874;2023-05-07T15:02:41;3.75;;;2.45;;
13685;SDS011;6915;48.296;8.874;2023-05-07T15:05:10;2.90;;;2.33;;
13685;SDS011;6915;48.296;8.874;2023-05-07T15:07:39;2.70;;;2.50;;
13685;SDS011;6915;48.296;8.874;2023-05-07T15:10:08;2.90;;;2.13;;
13685;SDS011;6915;48.296;8.874;2023-05-07T15:12:37;2.27;;;1.93;;
13685;SDS011;6915;48.296;8.874;2023-05-07T15:15:08;2.30;;;2.10;;
13685;SDS011;6915;48.296;8.874;2023-05-07T15:17:38;3.58;;;2.17;;
13685;SDS011;6915;48.296;8.874;2023-05-07T15:20:07;3.47;;;2.60;;
13685;SDS011;6915;48.296;8.874;2023-05-07T15:22:36;2.15;;;1.90;;
13685;SDS011;6915;48.296;8.874;2023-05-07T15:25:07;4.40;;;2.10;;
13685;SDS011;6915;48.296;8.874;2023-05-07T15:27:36;1.95;;;1.77;;
13685;SDS011;6915;48.296;8.874;2023-05-07T15:30:05;1.63;;;1.52;;
13685;SDS011;6915;48.296;8.874;2023-05-07T15:32:35;2.95;;;1.80;;
13685;SDS011;6915;48.296;8.874;2023-05-07T15:35:05;2.70;;;2.40;;
13685;SDS011;6915;48.296;8.874;2023-05-07T15:37:35;3.90;;;2.60;;
13685;SDS011;6915;48.296;8.874;2023-05-07T15:40:05;2.47;;;1.90;;